sensor_id;sensor_type;location;lat;lon;timestamp;P1;durP1;ratioP1;P2;durP2;ratioP2
5923;SDS011;2987;50.884;14.818;2023-04-01T00:01:00;9.90;;;3.90;;
5923;SDS011;2987;50.884;14.818;2023-04-01T00:03:28;6.27;;;3.60;;
5923;SDS011;2987;50.884;14.818;2023-04-01T00:05:56;6.50;;;3.57;;
5923;SDS011;2987;50.884;14.818;2023-04-01T00:08:24;5.63;;;3.80;;
5923;SDS011;2987;50.884;14.818;2023-04-01T00:10:52;6.80;;;3.90;;
5923;SDS011;2987;50.884;14.818;2023-04-01T00:13:19;8.40;;;4.37;;
5923;SDS011;2987;50.884;14.818;2023-04-01T00:15:46;5.00;;;4.07;;
5923;SDS011;2987;50.884;14.818;2023-04-01T00:18:32;7.23;;;4.27;;
5923;SDS011;2987;50.884;14.818;2023-04-01T00:20:58;6.00;;;3.90;;
5923;SDS011;2987;50.884;14.818;2023-04-01T00:23:24;5.57;;;4.50;;
5923;SDS011;2987;50.884;14.818;2023-04-01T00:25:51;6.20;;;4.53;;
5923;SDS011;2987;50.884;14.818;2023-04-01T00:28:18;8.40;;;4.60;;
5923;SDS011;2987;50.884;14.818;2023-04-01T00:30:48;9.20;;;4.40;;
5923;SDS011;2987;50.884;14.818;2023-04-01T00:33:14;5.33;;;4.07;;
5923;SDS011;2987;50.884;14.818;2023-04-01T00:35:42;7.00;;;4.00;;
5923;SDS011;2987;50.884;14.818;2023-04-01T00:38:11;7.20;;;4.57;;
5923;SDS011;2987;50.884;14.818;2023-04-01T00:40:40;5.17;;;4.40;;
5923;SDS011;2987;50.884;14.818;2023-04-01T00:43:16;6.90;;;5.07;;
5923;SDS011;2987;50.884;14.818;2023-04-01T00:45:45;6.77;;;4.50;;
5923;SDS011;2987;50.884;14.818;2023-04-01T00:48:14;6.27;;;4.67;;
5923;SDS011;2987;50.884;14.818;2023-04-01T00:50:45;10.27;;;4.97;;
5923;SDS011;2987;50.884;14.818;2023-04-01T00:53:33;6.87;;;4.40;;
5923;SDS011;2987;50.884;14.818;2023-04-01T00:56:04;7.03;;;4.87;;
5923;SDS011;2987;50.884;14.818;2023-04-01T01:03:31;4.40;;;4.00;;
5923;SDS011;2987;50.884;14.818;2023-04-01T01:08:53;4.60;;;4.07;;
5923;SDS011;2987;50.884;14.818;2023-04-01T01:14:01;7.13;;;3.70;;
5923;SDS011;2987;50.884;14.818;2023-04-01T01:16:42;6.00;;;4.37;;
5923;SDS011;2987;50.884;14.818;2023-04-01T01:22:01;5.47;;;3.93;;
5923;SDS011;2987;50.884;14.818;2023-04-01T01:38:17;4.57;;;3.30;;
5923;SDS011;2987;50.884;14.818;2023-04-01T01:40:54;3.63;;;3.30;;
5923;SDS011;2987;50.884;14.818;2023-04-01T01:43:25;3.47;;;3.00;;
5923;SDS011;2987;50.884;14.818;2023-04-01T01:45:56;3.90;;;3.17;;
5923;SDS011;2987;50.884;14.818;2023-04-01T01:48:26;4.53;;;3.00;;
5923;SDS011;2987;50.884;14.818;2023-04-01T01:50:55;4.40;;;3.20;;
5923;SDS011;2987;50.884;14.818;2023-04-01T01:53:21;5.17;;;3.30;;
5923;SDS011;2987;50.884;14.818;2023-04-01T01:55:47;3.00;;;2.70;;
5923;SDS011;2987;50.884;14.818;2023-04-01T01:58:18;4.90;;;2.90;;
5923;SDS011;2987;50.884;14.818;2023-04-01T02:00:51;3.83;;;2.80;;
5923;SDS011;2987;50.884;14.818;2023-04-01T02:03:22;4.70;;;2.80;;
5923;SDS011;2987;50.884;14.818;2023-04-01T02:05:52;3.37;;;3.07;;
5923;SDS011;2987;50.884;14.818;2023-04-01T02:08:24;3.13;;;2.83;;
5923;SDS011;2987;50.884;14.818;2023-04-01T02:10:58;5.00;;;3.00;;
5923;SDS011;2987;50.884;14.818;2023-04-01T02:13:38;4.00;;;2.70;;
5923;SDS011;2987;50.884;14.818;2023-04-01T02:16:12;5.93;;;2.73;;
5923;SDS011;2987;50.884;14.818;2023-04-01T02:18:50;4.10;;;2.87;;
5923;SDS011;2987;50.884;14.818;2023-04-01T02:21:20;3.47;;;2.77;;
5923;SDS011;2987;50.884;14.818;2023-04-01T02:23:50;2.70;;;2.50;;
5923;SDS011;2987;50.884;14.818;2023-04-01T02:26:18;4.23;;;2.60;;
5923;SDS011;2987;50.884;14.818;2023-04-01T02:28:45;3.13;;;2.20;;
5923;SDS011;2987;50.884;14.818;2023-04-01T02:31:15;3.10;;;2.63;;
5923;SDS011;2987;50.884;14.818;2023-04-01T02:33:42;5.93;;;2.70;;
5923;SDS011;2987;50.884;14.818;2023-04-01T02:36:10;3.47;;;2.83;;
5923;SDS011;2987;50.884;14.818;2023-04-01T02:38:39;4.00;;;2.77;;
5923;SDS011;2987;50.884;14.818;2023-04-01T02:41:06;3.17;;;2.30;;
5923;SDS011;2987;50.884;14.818;2023-04-01T02:43:33;2.47;;;2.27;;
5923;SDS011;2987;50.884;14.818;2023-04-01T02:45:59;2.83;;;2.60;;
5923;SDS011;2987;50.884;14.818;2023-04-01T02:48:27;2.70;;;2.40;;
5923;SDS011;2987;50.884;14.818;2023-04-01T02:50:54;4.10;;;2.50;;
5923;SDS011;2987;50.884;14.818;2023-04-01T02:53:20;2.63;;;2.27;;
5923;SDS011;2987;50.884;14.818;2023-04-01T02:55:46;6.53;;;2.87;;
5923;SDS011;2987;50.884;14.818;2023-04-01T02:58:16;4.27;;;2.77;;
5923;SDS011;2987;50.884;14.818;2023-04-01T03:00:42;3.77;;;2.33;;
5923;SDS011;2987;50.884;14.818;2023-04-01T03:03:09;3.17;;;2.30;;
5923;SDS011;2987;50.884;14.818;2023-04-01T03:05:35;4.93;;;2.73;;
5923;SDS011;2987;50.884;14.818;2023-04-01T03:08:01;4.60;;;2.50;;
5923;SDS011;2987;50.884;14.818;2023-04-01T03:10:28;4.97;;;2.80;;
5923;SDS011;2987;50.884;14.818;2023-04-01T03:12:54;4.50;;;2.73;;
5923;SDS011;2987;50.884;14.818;2023-04-01T03:15:20;3.73;;;2.67;;
5923;SDS011;2987;50.884;14.818;2023-04-01T03:17:46;3.70;;;2.70;;
5923;SDS011;2987;50.884;14.818;2023-04-01T03:20:13;5.03;;;2.50;;
5923;SDS011;2987;50.884;14.818;2023-04-01T03:22:40;2.63;;;2.30;;
5923;SDS011;2987;50.884;14.818;2023-04-01T03:25:07;2.50;;;2.30;;
5923;SDS011;2987;50.884;14.818;2023-04-01T03:27:34;4.00;;;2.83;;
5923;SDS011;2987;50.884;14.818;2023-04-01T03:30:02;3.30;;;2.40;;
5923;SDS011;2987;50.884;14.818;2023-04-01T03:32:33;7.47;;;2.73;;
5923;SDS011;2987;50.884;14.818;2023-04-01T03:35:00;4.80;;;2.63;;
5923;SDS011;2987;50.884;14.818;2023-04-01T03:37:26;4.93;;;2.60;;
5923;SDS011;2987;50.884;14.818;2023-04-01T03:39:53;5.43;;;2.47;;
5923;SDS011;2987;50.884;14.818;2023-04-01T03:42:19;5.23;;;2.80;;
5923;SDS011;2987;50.884;14.818;2023-04-01T03:44:45;4.17;;;2.37;;
5923;SDS011;2987;50.884;14.818;2023-04-01T03:47:11;5.20;;;2.80;;
5923;SDS011;2987;50.884;14.818;2023-04-01T03:49:38;6.57;;;2.43;;
5923;SDS011;2987;50.884;14.818;2023-04-01T03:52:04;3.70;;;2.70;;
5923;SDS011;2987;50.884;14.818;2023-04-01T03:54:35;4.40;;;2.70;;
5923;SDS011;2987;50.884;14.818;2023-04-01T03:57:01;3.03;;;2.63;;
5923;SDS011;2987;50.884;14.818;2023-04-01T03:59:27;3.20;;;2.73;;
5923;SDS011;2987;50.884;14.818;2023-04-01T04:01:54;3.63;;;2.70;;
5923;SDS011;2987;50.884;14.818;2023-04-01T04:04:20;2.63;;;2.40;;
5923;SDS011;2987;50.884;14.818;2023-04-01T04:06:47;6.03;;;3.03;;
5923;SDS011;2987;50.884;14.818;2023-04-01T04:09:14;4.00;;;2.97;;
5923;SDS011;2987;50.884;14.818;2023-04-01T04:11:41;3.00;;;2.80;;
5923;SDS011;2987;50.884;14.818;2023-04-01T04:14:07;4.40;;;2.67;;
5923;SDS011;2987;50.884;14.818;2023-04-01T04:16:34;3.60;;;2.77;;
5923;SDS011;2987;50.884;14.818;2023-04-01T04:19:03;4.03;;;2.80;;
5923;SDS011;2987;50.884;14.818;2023-04-01T04:21:30;5.43;;;3.13;;
5923;SDS011;2987;50.884;14.818;2023-04-01T04:23:58;4.67;;;3.10;;
5923;SDS011;2987;50.884;14.818;2023-04-01T04:26:26;4.40;;;3.70;;
5923;SDS011;2987;50.884;14.818;2023-04-01T04:28:58;6.33;;;3.40;;
5923;SDS011;2987;50.884;14.818;2023-04-01T04:31:25;4.77;;;3.43;;
5923;SDS011;2987;50.884;14.818;2023-04-01T04:33:54;4.17;;;3.60;;
5923;SDS011;2987;50.884;14.818;2023-04-01T04:36:21;3.97;;;3.50;;
5923;SDS011;2987;50.884;14.818;2023-04-01T04:38:49;5.77;;;4.10;;
5923;SDS011;2987;50.884;14.818;2023-04-01T04:41:16;4.63;;;4.20;;
5923;SDS011;2987;50.884;14.818;2023-04-01T04:43:49;6.73;;;4.03;;
5923;SDS011;2987;50.884;14.818;2023-04-01T04:46:17;9.77;;;4.10;;
5923;SDS011;2987;50.884;14.818;2023-04-01T04:48:44;6.03;;;4.57;;
5923;SDS011;2987;50.884;14.818;2023-04-01T04:51:13;5.03;;;4.53;;
5923;SDS011;2987;50.884;14.818;2023-04-01T04:53:41;7.70;;;4.20;;
5923;SDS011;2987;50.884;14.818;2023-04-01T04:56:07;6.67;;;3.93;;
5923;SDS011;2987;50.884;14.818;2023-04-01T04:58:41;6.13;;;4.13;;
5923;SDS011;2987;50.884;14.818;2023-04-01T05:01:11;4.73;;;4.00;;
5923;SDS011;2987;50.884;14.818;2023-04-01T05:03:39;7.70;;;3.73;;
5923;SDS011;2987;50.884;14.818;2023-04-01T05:06:07;5.40;;;3.53;;
5923;SDS011;2987;50.884;14.818;2023-04-01T05:08:34;5.57;;;3.90;;
5923;SDS011;2987;50.884;14.818;2023-04-01T05:11:01;5.07;;;3.50;;
5923;SDS011;2987;50.884;14.818;2023-04-01T05:13:29;4.77;;;3.87;;
5923;SDS011;2987;50.884;14.818;2023-04-01T05:15:59;7.17;;;4.13;;
5923;SDS011;2987;50.884;14.818;2023-04-01T05:18:25;5.87;;;4.03;;
5923;SDS011;2987;50.884;14.818;2023-04-01T05:20:52;5.67;;;4.23;;
5923;SDS011;2987;50.884;14.818;2023-04-01T05:23:20;4.87;;;4.13;;
5923;SDS011;2987;50.884;14.818;2023-04-01T05:25:48;7.07;;;4.30;;
5923;SDS011;2987;50.884;14.818;2023-04-01T05:28:17;4.63;;;4.07;;
5923;SDS011;2987;50.884;14.818;2023-04-01T05:30:45;3.73;;;3.43;;
5923;SDS011;2987;50.884;14.818;2023-04-01T05:33:21;5.33;;;3.70;;
5923;SDS011;2987;50.884;14.818;2023-04-01T05:35:47;4.40;;;3.30;;
5923;SDS011;2987;50.884;14.818;2023-04-01T05:38:13;7.23;;;3.40;;
5923;SDS011;2987;50.884;14.818;2023-04-01T05:40:43;3.60;;;2.93;;
5923;SDS011;2987;50.884;14.818;2023-04-01T05:43:09;3.97;;;3.10;;
5923;SDS011;2987;50.884;14.818;2023-04-01T05:45:35;3.73;;;3.17;;
5923;SDS011;2987;50.884;14.818;2023-04-01T05:48:22;3.70;;;2.90;;
5923;SDS011;2987;50.884;14.818;2023-04-01T05:50:48;2.80;;;2.40;;
5923;SDS011;2987;50.884;14.818;2023-04-01T05:53:14;3.37;;;2.30;;
5923;SDS011;2987;50.884;14.818;2023-04-01T05:55:41;3.70;;;2.27;;
5923;SDS011;2987;50.884;14.818;2023-04-01T05:58:07;4.17;;;1.77;;
5923;SDS011;2987;50.884;14.818;2023-04-01T06:00:35;1.97;;;1.60;;
5923;SDS011;2987;50.884;14.818;2023-04-01T06:03:01;2.13;;;1.70;;
5923;SDS011;2987;50.884;14.818;2023-04-01T06:05:28;1.73;;;1.50;;
5923;SDS011;2987;50.884;14.818;2023-04-01T06:07:58;2.10;;;2.00;;
5923;SDS011;2987;50.884;14.818;2023-04-01T06:16:11;3.97;;;1.80;;
5923;SDS011;2987;50.884;14.818;2023-04-01T06:19:13;3.43;;;1.80;;
5923;SDS011;2987;50.884;14.818;2023-04-01T06:27:17;2.77;;;2.03;;
5923;SDS011;2987;50.884;14.818;2023-04-01T06:30:07;2.63;;;1.87;;
5923;SDS011;2987;50.884;14.818;2023-04-01T06:33:19;4.80;;;2.40;;
5923;SDS011;2987;50.884;14.818;2023-04-01T06:44:54;3.87;;;2.00;;
5923;SDS011;2987;50.884;14.818;2023-04-01T06:57:00;2.20;;;1.30;;
5923;SDS011;2987;50.884;14.818;2023-04-01T07:02:16;5.07;;;1.70;;
5923;SDS011;2987;50.884;14.818;2023-04-01T07:05:04;3.00;;;1.30;;
5923;SDS011;2987;50.884;14.818;2023-04-01T07:07:48;1.73;;;1.30;;
5923;SDS011;2987;50.884;14.818;2023-04-01T07:10:22;2.40;;;1.20;;
5923;SDS011;2987;50.884;14.818;2023-04-01T07:13:15;1.60;;;1.50;;
5923;SDS011;2987;50.884;14.818;2023-04-01T07:21:39;2.97;;;1.10;;
5923;SDS011;2987;50.884;14.818;2023-04-01T07:24:24;2.27;;;0.97;;
5923;SDS011;2987;50.884;14.818;2023-04-01T07:29:33;4.67;;;1.20;;
5923;SDS011;2987;50.884;14.818;2023-04-01T07:32:09;1.80;;;1.10;;
5923;SDS011;2987;50.884;14.818;2023-04-01T07:34:54;2.43;;;1.20;;
5923;SDS011;2987;50.884;14.818;2023-04-01T07:43:34;1.63;;;1.10;;
5923;SDS011;2987;50.884;14.818;2023-04-01T07:49:22;1.63;;;1.10;;
5923;SDS011;2987;50.884;14.818;2023-04-01T07:52:00;1.57;;;1.00;;
5923;SDS011;2987;50.884;14.818;2023-04-01T07:59:54;1.43;;;1.33;;
5923;SDS011;2987;50.884;14.818;2023-04-01T08:02:55;2.07;;;1.37;;
5923;SDS011;2987;50.884;14.818;2023-04-01T08:25:48;2.20;;;0.97;;
5923;SDS011;2987;50.884;14.818;2023-04-01T08:28:21;1.97;;;1.00;;
5923;SDS011;2987;50.884;14.818;2023-04-01T08:31:01;3.77;;;1.10;;
5923;SDS011;2987;50.884;14.818;2023-04-01T08:38:54;2.90;;;1.20;;
5923;SDS011;2987;50.884;14.818;2023-04-01T08:41:34;2.33;;;1.23;;
5923;SDS011;2987;50.884;14.818;2023-04-01T08:44:40;1.27;;;1.00;;
5923;SDS011;2987;50.884;14.818;2023-04-01T08:47:35;4.10;;;1.97;;
5923;SDS011;2987;50.884;14.818;2023-04-01T08:50:38;1.70;;;1.60;;
5923;SDS011;2987;50.884;14.818;2023-04-01T09:13:18;2.37;;;1.10;;
5923;SDS011;2987;50.884;14.818;2023-04-01T09:21:52;1.00;;;0.90;;
5923;SDS011;2987;50.884;14.818;2023-04-01T09:27:29;1.10;;;0.90;;
5923;SDS011;2987;50.884;14.818;2023-04-01T09:30:27;2.10;;;1.07;;
5923;SDS011;2987;50.884;14.818;2023-04-01T09:33:05;1.17;;;1.00;;
5923;SDS011;2987;50.884;14.818;2023-04-01T09:36:02;1.73;;;1.10;;
5923;SDS011;2987;50.884;14.818;2023-04-01T09:38:47;1.50;;;1.07;;
5923;SDS011;2987;50.884;14.818;2023-04-01T09:41:27;2.83;;;1.00;;
5923;SDS011;2987;50.884;14.818;2023-04-01T09:44:13;2.37;;;1.37;;
5923;SDS011;2987;50.884;14.818;2023-04-01T09:47:06;3.77;;;1.20;;
5923;SDS011;2987;50.884;14.818;2023-04-01T09:50:13;2.47;;;1.20;;
5923;SDS011;2987;50.884;14.818;2023-04-01T09:53:07;2.03;;;1.10;;
5923;SDS011;2987;50.884;14.818;2023-04-01T10:07:34;0.70;;;0.70;;
5923;SDS011;2987;50.884;14.818;2023-04-01T10:38:55;1.80;;;1.70;;
5923;SDS011;2987;50.884;14.818;2023-04-01T10:45:03;1.50;;;1.30;;
5923;SDS011;2987;50.884;14.818;2023-04-01T11:02:54;1.70;;;0.80;;
5923;SDS011;2987;50.884;14.818;2023-04-01T11:14:20;1.90;;;1.03;;
5923;SDS011;2987;50.884;14.818;2023-04-01T11:17:14;1.53;;;1.00;;
5923;SDS011;2987;50.884;14.818;2023-04-01T11:37:20;1.87;;;1.10;;
5923;SDS011;2987;50.884;14.818;2023-04-01T11:40:35;1.63;;;0.87;;
5923;SDS011;2987;50.884;14.818;2023-04-01T11:43:36;1.40;;;0.90;;
5923;SDS011;2987;50.884;14.818;2023-04-01T11:46:23;1.40;;;0.80;;
5923;SDS011;2987;50.884;14.818;2023-04-01T11:49:00;2.53;;;1.23;;
5923;SDS011;2987;50.884;14.818;2023-04-01T11:51:55;1.03;;;0.90;;
5923;SDS011;2987;50.884;14.818;2023-04-01T12:00:00;0.70;;;0.67;;
5923;SDS011;2987;50.884;14.818;2023-04-01T12:16:29;0.90;;;0.90;;
5923;SDS011;2987;50.884;14.818;2023-04-01T12:19:35;1.67;;;1.00;;
5923;SDS011;2987;50.884;14.818;2023-04-01T12:27:31;0.90;;;0.80;;
5923;SDS011;2987;50.884;14.818;2023-04-01T12:30:09;1.40;;;0.90;;
5923;SDS011;2987;50.884;14.818;2023-04-01T12:35:55;0.70;;;0.70;;
5923;SDS011;2987;50.884;14.818;2023-04-01T12:44:09;1.73;;;0.80;;
5923;SDS011;2987;50.884;14.818;2023-04-01T12:46:57;1.77;;;1.00;;
5923;SDS011;2987;50.884;14.818;2023-04-01T12:49:51;2.33;;;0.90;;
5923;SDS011;2987;50.884;14.818;2023-04-01T12:52:27;0.90;;;0.90;;
5923;SDS011;2987;50.884;14.818;2023-04-01T13:00:33;0.73;;;0.73;;
5923;SDS011;2987;50.884;14.818;2023-04-01T13:03:21;1.00;;;0.90;;
5923;SDS011;2987;50.884;14.818;2023-04-01T13:17:19;0.90;;;0.70;;
5923;SDS011;2987;50.884;14.818;2023-04-01T13:20:03;0.53;;;0.53;;
5923;SDS011;2987;50.884;14.818;2023-04-01T13:28:10;0.47;;;0.47;;
5923;SDS011;2987;50.884;14.818;2023-04-01T13:33:50;0.83;;;0.83;;
5923;SDS011;2987;50.884;14.818;2023-04-01T13:47:07;0.67;;;0.60;;
5923;SDS011;2987;50.884;14.818;2023-04-01T13:55:30;1.30;;;0.97;;
5923;SDS011;2987;50.884;14.818;2023-04-01T13:58:13;0.70;;;0.70;;
5923;SDS011;2987;50.884;14.818;2023-04-01T14:23:02;5.60;;;3.10;;
5923;SDS011;2987;50.884;14.818;2023-04-01T14:28:43;6.10;;;2.97;;
5923;SDS011;2987;50.884;14.818;2023-04-01T14:31:25;1.83;;;1.60;;
5923;SDS011;2987;50.884;14.818;2023-04-01T14:47:59;0.97;;;0.97;;
5923;SDS011;2987;50.884;14.818;2023-04-01T14:55:58;2.77;;;1.30;;
5923;SDS011;2987;50.884;14.818;2023-04-01T14:58:40;1.17;;;1.07;;
5923;SDS011;2987;50.884;14.818;2023-04-01T15:01:32;3.00;;;1.50;;
5923;SDS011;2987;50.884;14.818;2023-04-01T15:04:17;1.30;;;1.20;;
5923;SDS011;2987;50.884;14.818;2023-04-01T15:07:04;3.53;;;1.47;;
5923;SDS011;2987;50.884;14.818;2023-04-01T15:15:44;1.53;;;1.43;;
5923;SDS011;2987;50.884;14.818;2023-04-01T15:23:42;1.23;;;1.17;;
5923;SDS011;2987;50.884;14.818;2023-04-01T15:26:37;1.20;;;1.10;;
5923;SDS011;2987;50.884;14.818;2023-04-01T15:45:42;1.57;;;1.47;;
5923;SDS011;2987;50.884;14.818;2023-04-01T16:01:59;1.37;;;1.10;;
5923;SDS011;2987;50.884;14.818;2023-04-01T16:18:40;2.37;;;2.00;;
5923;SDS011;2987;50.884;14.818;2023-04-01T16:32:29;3.50;;;2.80;;
5923;SDS011;2987;50.884;14.818;2023-04-01T16:40:36;3.63;;;3.00;;
5923;SDS011;2987;50.884;14.818;2023-04-01T16:45:56;2.80;;;2.60;;
5923;SDS011;2987;50.884;14.818;2023-04-01T16:54:39;3.60;;;3.00;;
5923;SDS011;2987;50.884;14.818;2023-04-01T17:00:02;1.87;;;1.77;;
5923;SDS011;2987;50.884;14.818;2023-04-01T17:02:43;1.60;;;1.50;;
5923;SDS011;2987;50.884;14.818;2023-04-01T17:05:15;2.83;;;1.60;;
5923;SDS011;2987;50.884;14.818;2023-04-01T17:10:25;1.77;;;1.47;;
5923;SDS011;2987;50.884;14.818;2023-04-01T17:13:06;3.43;;;1.70;;
5923;SDS011;2987;50.884;14.818;2023-04-01T17:24:00;1.70;;;1.60;;
5923;SDS011;2987;50.884;14.818;2023-04-01T17:31:52;3.27;;;1.53;;
5923;SDS011;2987;50.884;14.818;2023-04-01T17:37:18;1.77;;;1.43;;
5923;SDS011;2987;50.884;14.818;2023-04-01T17:40:05;1.50;;;1.40;;
5923;SDS011;2987;50.884;14.818;2023-04-01T17:42:49;2.10;;;1.90;;
5923;SDS011;2987;50.884;14.818;2023-04-01T17:45:33;1.60;;;1.50;;
5923;SDS011;2987;50.884;14.818;2023-04-01T17:51:17;3.87;;;2.83;;
5923;SDS011;2987;50.884;14.818;2023-04-01T17:53:59;3.80;;;3.40;;
5923;SDS011;2987;50.884;14.818;2023-04-01T18:27:17;5.73;;;4.70;;
5923;SDS011;2987;50.884;14.818;2023-04-01T18:29:51;5.10;;;4.60;;
5923;SDS011;2987;50.884;14.818;2023-04-01T18:32:27;4.40;;;4.00;;
5923;SDS011;2987;50.884;14.818;2023-04-01T18:35:22;4.03;;;3.60;;
5923;SDS011;2987;50.884;14.818;2023-04-01T18:37:56;5.40;;;4.33;;
5923;SDS011;2987;50.884;14.818;2023-04-01T18:40:35;4.83;;;4.00;;
5923;SDS011;2987;50.884;14.818;2023-04-01T18:43:19;6.87;;;3.83;;
5923;SDS011;2987;50.884;14.818;2023-04-01T18:46:12;3.50;;;3.20;;
5923;SDS011;2987;50.884;14.818;2023-04-01T18:57:02;5.40;;;3.67;;
5923;SDS011;2987;50.884;14.818;2023-04-01T19:07:45;4.17;;;3.77;;
5923;SDS011;2987;50.884;14.818;2023-04-01T19:21:29;3.30;;;3.00;;
5923;SDS011;2987;50.884;14.818;2023-04-01T19:24:16;3.23;;;2.93;;
5923;SDS011;2987;50.884;14.818;2023-04-01T19:27:15;4.57;;;3.37;;
5923;SDS011;2987;50.884;14.818;2023-04-01T19:47:04;17.80;;;13.10;;
5923;SDS011;2987;50.884;14.818;2023-04-01T19:52:37;22.43;;;16.53;;
5923;SDS011;2987;50.884;14.818;2023-04-01T19:55:14;22.07;;;16.50;;
5923;SDS011;2987;50.884;14.818;2023-04-01T19:58:02;20.60;;;14.67;;
5923;SDS011;2987;50.884;14.818;2023-04-01T20:00:52;15.83;;;12.37;;
5923;SDS011;2987;50.884;14.818;2023-04-01T20:03:25;13.03;;;11.07;;
5923;SDS011;2987;50.884;14.818;2023-04-01T20:06:08;13.40;;;10.53;;
5923;SDS011;2987;50.884;14.818;2023-04-01T20:08:41;11.13;;;8.90;;
5923;SDS011;2987;50.884;14.818;2023-04-01T20:11:37;6.97;;;6.33;;
5923;SDS011;2987;50.884;14.818;2023-04-01T20:14:15;14.70;;;5.80;;
5923;SDS011;2987;50.884;14.818;2023-04-01T20:17:13;6.17;;;5.30;;
5923;SDS011;2987;50.884;14.818;2023-04-01T20:19:52;10.23;;;5.50;;
5923;SDS011;2987;50.884;14.818;2023-04-01T20:25:33;5.27;;;4.37;;
5923;SDS011;2987;50.884;14.818;2023-04-01T20:28:13;5.60;;;4.63;;
5923;SDS011;2987;50.884;14.818;2023-04-01T20:30:53;5.60;;;4.50;;
5923;SDS011;2987;50.884;14.818;2023-04-01T20:33:44;6.17;;;4.43;;
5923;SDS011;2987;50.884;14.818;2023-04-01T20:36:21;4.87;;;4.40;;
5923;SDS011;2987;50.884;14.818;2023-04-01T20:44:52;6.53;;;5.87;;
5923;SDS011;2987;50.884;14.818;2023-04-01T20:47:51;6.57;;;5.77;;
5923;SDS011;2987;50.884;14.818;2023-04-01T20:53:34;7.67;;;6.60;;
5923;SDS011;2987;50.884;14.818;2023-04-01T20:56:10;8.47;;;7.30;;
5923;SDS011;2987;50.884;14.818;2023-04-01T21:27:15;12.07;;;8.87;;
5923;SDS011;2987;50.884;14.818;2023-04-01T21:33:01;12.53;;;9.30;;
5923;SDS011;2987;50.884;14.818;2023-04-01T21:38:09;14.30;;;9.97;;
5923;SDS011;2987;50.884;14.818;2023-04-01T21:40:49;24.63;;;17.30;;
5923;SDS011;2987;50.884;14.818;2023-04-01T21:43:21;27.17;;;18.57;;
5923;SDS011;2987;50.884;14.818;2023-04-01T21:46:24;29.47;;;17.97;;
5923;SDS011;2987;50.884;14.818;2023-04-01T21:49:21;23.03;;;14.57;;
5923;SDS011;2987;50.884;14.818;2023-04-01T22:13:32;24.00;;;13.70;;
5923;SDS011;2987;50.884;14.818;2023-04-01T22:16:10;24.23;;;13.00;;
5923;SDS011;2987;50.884;14.818;2023-04-01T22:21:23;18.20;;;10.13;;
5923;SDS011;2987;50.884;14.818;2023-04-01T22:24:20;14.50;;;8.30;;
5923;SDS011;2987;50.884;14.818;2023-04-01T22:27:07;15.73;;;9.13;;
5923;SDS011;2987;50.884;14.818;2023-04-01T22:34:58;16.00;;;8.03;;
5923;SDS011;2987;50.884;14.818;2023-04-01T22:37:40;13.33;;;7.87;;
5923;SDS011;2987;50.884;14.818;2023-04-01T22:40:30;10.70;;;6.40;;
5923;SDS011;2987;50.884;14.818;2023-04-01T22:43:08;7.10;;;5.23;;
5923;SDS011;2987;50.884;14.818;2023-04-01T22:45:58;9.30;;;5.33;;
5923;SDS011;2987;50.884;14.818;2023-04-01T22:48:46;11.67;;;4.97;;
5923;SDS011;2987;50.884;14.818;2023-04-01T23:02:21;4.30;;;3.50;;
5923;SDS011;2987;50.884;14.818;2023-04-01T23:04:54;4.57;;;3.47;;
5923;SDS011;2987;50.884;14.818;2023-04-01T23:15:45;6.57;;;5.10;;
5923;SDS011;2987;50.884;14.818;2023-04-01T23:18:35;8.70;;;6.87;;
5923;SDS011;2987;50.884;14.818;2023-04-01T23:21:21;7.27;;;5.73;;
5923;SDS011;2987;50.884;14.818;2023-04-01T23:24:19;8.07;;;6.67;;
5923;SDS011;2987;50.884;14.818;2023-04-01T23:26:54;9.83;;;6.47;;
5923;SDS011;2987;50.884;14.818;2023-04-01T23:29:27;6.87;;;6.00;;
5923;SDS011;2987;50.884;14.818;2023-04-01T23:31:58;7.33;;;6.10;;
5923;SDS011;2987;50.884;14.818;2023-04-01T23:34:33;5.37;;;4.87;;
5923;SDS011;2987;50.884;14.818;2023-04-01T23:37:03;5.87;;;5.27;;
5923;SDS011;2987;50.884;14.818;2023-04-01T23:39:37;6.47;;;5.70;;
5923;SDS011;2987;50.884;14.818;2023-04-01T23:42:07;6.63;;;5.80;;
5923;SDS011;2987;50.884;14.818;2023-04-01T23:44:41;6.00;;;5.37;;
5923;SDS011;2987;50.884;14.818;2023-04-01T23:47:12;6.53;;;5.93;;
5923;SDS011;2987;50.884;14.818;2023-04-01T23:49:44;8.33;;;6.43;;
5923;SDS011;2987;50.884;14.818;2023-04-01T23:52:23;6.93;;;5.90;;
5923;SDS011;2987;50.884;14.818;2023-04-01T23:54:56;7.53;;;6.20;;
5923;SDS011;2987;50.884;14.818;2023-04-01T23:57:28;7.30;;;6.50;;
